sensor_id;sensor_type;location;lat;lon;timestamp;temperature;humidity
31639;DHT22;18248;51.522;7.020;2023-04-24T00:02:21;12.20;99.90
31639;DHT22;18248;51.522;7.020;2023-04-24T00:05:20;12.20;99.90
31639;DHT22;18248;51.522;7.020;2023-04-24T00:08:19;12.20;99.90
31639;DHT22;18248;51.522;7.020;2023-04-24T00:11:17;12.20;99.90
31639;DHT22;18248;51.522;7.020;2023-04-24T00:14:16;12.30;99.90
31639;DHT22;18248;51.522;7.020;2023-04-24T00:17:15;12.30;99.90
31639;DHT22;18248;51.522;7.020;2023-04-24T00:20:14;12.30;99.90
31639;DHT22;18248;51.522;7.020;2023-04-24T00:23:13;12.30;99.90
31639;DHT22;18248;51.522;7.020;2023-04-24T00:26:12;12.30;99.90
31639;DHT22;18248;51.522;7.020;2023-04-24T00:29:10;12.30;99.90
31639;DHT22;18248;51.522;7.020;2023-04-24T00:32:09;12.30;99.90
31639;DHT22;18248;51.522;7.020;2023-04-24T00:35:08;12.30;99.90
31639;DHT22;18248;51.522;7.020;2023-04-24T00:38:06;12.30;99.90
31639;DHT22;18248;51.522;7.020;2023-04-24T00:41:06;12.20;99.90
31639;DHT22;18248;51.522;7.020;2023-04-24T00:44:05;12.30;99.90
31639;DHT22;18248;51.522;7.020;2023-04-24T00:47:03;12.30;99.90
31639;DHT22;18248;51.522;7.020;2023-04-24T00:50:06;12.20;99.90
31639;DHT22;18248;51.522;7.020;2023-04-24T00:53:05;12.20;99.90
31639;DHT22;18248;51.522;7.020;2023-04-24T00:56:04;12.20;99.90
31639;DHT22;18248;51.522;7.020;2023-04-24T00:59:03;12.20;99.90
31639;DHT22;18248;51.522;7.020;2023-04-24T01:02:02;12.10;99.90
31639;DHT22;18248;51.522;7.020;2023-04-24T01:05:01;12.00;99.90
31639;DHT22;18248;51.522;7.020;2023-04-24T01:08:01;11.90;99.90
31639;DHT22;18248;51.522;7.020;2023-04-24T01:11:03;11.80;99.90
31639;DHT22;18248;51.522;7.020;2023-04-24T01:14:02;11.90;99.90
31639;DHT22;18248;51.522;7.020;2023-04-24T01:17:00;11.80;99.90
31639;DHT22;18248;51.522;7.020;2023-04-24T01:20:00;11.80;99.90
31639;DHT22;18248;51.522;7.020;2023-04-24T01:23:00;11.90;99.90
31639;DHT22;18248;51.522;7.020;2023-04-24T01:25:58;11.80;99.90
31639;DHT22;18248;51.522;7.020;2023-04-24T01:28:57;11.70;99.90
31639;DHT22;18248;51.522;7.020;2023-04-24T01:31:56;11.70;99.90
31639;DHT22;18248;51.522;7.020;2023-04-24T01:34:57;11.60;99.90
31639;DHT22;18248;51.522;7.020;2023-04-24T01:37:55;11.60;99.90
31639;DHT22;18248;51.522;7.020;2023-04-24T01:40:54;11.50;99.90
31639;DHT22;18248;51.522;7.020;2023-04-24T01:43:53;11.50;99.90
31639;DHT22;18248;51.522;7.020;2023-04-24T01:46:53;11.40;99.90
31639;DHT22;18248;51.522;7.020;2023-04-24T01:49:53;11.40;99.90
31639;DHT22;18248;51.522;7.020;2023-04-24T01:52:53;11.30;99.90
31639;DHT22;18248;51.522;7.020;2023-04-24T01:55:51;11.30;99.90
31639;DHT22;18248;51.522;7.020;2023-04-24T01:58:50;11.20;99.90
31639;DHT22;18248;51.522;7.020;2023-04-24T02:01:50;11.20;99.90
31639;DHT22;18248;51.522;7.020;2023-04-24T02:04:50;11.20;99.90
31639;DHT22;18248;51.522;7.020;2023-04-24T02:07:49;11.10;99.90
31639;DHT22;18248;51.522;7.020;2023-04-24T02:10:48;11.10;99.90
31639;DHT22;18248;51.522;7.020;2023-04-24T02:13:46;11.10;99.90
31639;DHT22;18248;51.522;7.020;2023-04-24T02:16:45;11.10;99.90
31639;DHT22;18248;51.522;7.020;2023-04-24T02:19:45;11.10;99.90
31639;DHT22;18248;51.522;7.020;2023-04-24T02:22:44;11.10;99.90
31639;DHT22;18248;51.522;7.020;2023-04-24T02:25:43;11.10;99.90
31639;DHT22;18248;51.522;7.020;2023-04-24T02:28:44;11.10;99.90
31639;DHT22;18248;51.522;7.020;2023-04-24T02:31:42;11.00;99.90
31639;DHT22;18248;51.522;7.020;2023-04-24T02:34:41;11.00;99.90
31639;DHT22;18248;51.522;7.020;2023-04-24T02:37:39;11.00;99.90
31639;DHT22;18248;51.522;7.020;2023-04-24T02:40:38;11.00;99.90
31639;DHT22;18248;51.522;7.020;2023-04-24T02:43:36;11.00;99.90
31639;DHT22;18248;51.522;7.020;2023-04-24T02:46:35;11.00;99.90
31639;DHT22;18248;51.522;7.020;2023-04-24T02:49:34;10.90;99.90
31639;DHT22;18248;51.522;7.020;2023-04-24T02:52:33;10.90;99.90
31639;DHT22;18248;51.522;7.020;2023-04-24T02:55:32;10.90;99.90
31639;DHT22;18248;51.522;7.020;2023-04-24T02:58:30;10.90;99.90
31639;DHT22;18248;51.522;7.020;2023-04-24T03:01:29;10.90;99.90
31639;DHT22;18248;51.522;7.020;2023-04-24T03:04:28;10.90;99.90
31639;DHT22;18248;51.522;7.020;2023-04-24T03:07:27;10.90;99.90
31639;DHT22;18248;51.522;7.020;2023-04-24T03:10:25;10.90;99.90
31639;DHT22;18248;51.522;7.020;2023-04-24T03:13:24;10.90;99.90
31639;DHT22;18248;51.522;7.020;2023-04-24T03:16:22;10.90;99.90
31639;DHT22;18248;51.522;7.020;2023-04-24T03:19:21;10.90;99.90
31639;DHT22;18248;51.522;7.020;2023-04-24T03:22:19;11.00;99.90
31639;DHT22;18248;51.522;7.020;2023-04-24T03:25:18;11.00;99.90
31639;DHT22;18248;51.522;7.020;2023-04-24T03:28:16;10.90;99.90
31639;DHT22;18248;51.522;7.020;2023-04-24T03:31:15;11.00;99.90
31639;DHT22;18248;51.522;7.020;2023-04-24T03:34:13;11.00;99.90
31639;DHT22;18248;51.522;7.020;2023-04-24T03:37:12;10.90;99.90
31639;DHT22;18248;51.522;7.020;2023-04-24T03:40:11;10.90;99.90
31639;DHT22;18248;51.522;7.020;2023-04-24T03:43:10;10.90;99.90
31639;DHT22;18248;51.522;7.020;2023-04-24T03:46:09;10.90;99.90
31639;DHT22;18248;51.522;7.020;2023-04-24T03:49:08;10.90;99.90
31639;DHT22;18248;51.522;7.020;2023-04-24T03:52:06;10.90;99.90
31639;DHT22;18248;51.522;7.020;2023-04-24T03:55:05;10.90;99.90
31639;DHT22;18248;51.522;7.020;2023-04-24T03:58:06;10.90;99.90
31639;DHT22;18248;51.522;7.020;2023-04-24T04:01:04;10.90;99.90
31639;DHT22;18248;51.522;7.020;2023-04-24T04:04:04;10.90;99.90
31639;DHT22;18248;51.522;7.020;2023-04-24T04:07:02;10.90;99.90
31639;DHT22;18248;51.522;7.020;2023-04-24T04:10:01;10.90;99.90
31639;DHT22;18248;51.522;7.020;2023-04-24T04:13:00;10.90;99.90
31639;DHT22;18248;51.522;7.020;2023-04-24T04:15:58;10.90;99.90
31639;DHT22;18248;51.522;7.020;2023-04-24T04:18:57;10.90;99.90
31639;DHT22;18248;51.522;7.020;2023-04-24T04:21:55;10.90;99.90
31639;DHT22;18248;51.522;7.020;2023-04-24T04:24:54;10.90;99.90
31639;DHT22;18248;51.522;7.020;2023-04-24T04:27:52;10.90;99.90
31639;DHT22;18248;51.522;7.020;2023-04-24T04:30:52;10.90;99.90
31639;DHT22;18248;51.522;7.020;2023-04-24T04:33:53;10.90;99.90
31639;DHT22;18248;51.522;7.020;2023-04-24T04:36:52;10.90;99.90
31639;DHT22;18248;51.522;7.020;2023-04-24T04:39:50;10.90;99.90
31639;DHT22;18248;51.522;7.020;2023-04-24T04:42:50;10.90;99.90
31639;DHT22;18248;51.522;7.020;2023-04-24T04:45:51;10.90;99.90
31639;DHT22;18248;51.522;7.020;2023-04-24T04:48:53;10.90;99.90
31639;DHT22;18248;51.522;7.020;2023-04-24T04:51:51;11.00;99.90
31639;DHT22;18248;51.522;7.020;2023-04-24T04:54:51;11.00;99.90
31639;DHT22;18248;51.522;7.020;2023-04-24T04:57:50;11.00;99.90
31639;DHT22;18248;51.522;7.020;2023-04-24T05:00:48;11.00;99.90
31639;DHT22;18248;51.522;7.020;2023-04-24T05:03:47;10.90;99.90
31639;DHT22;18248;51.522;7.020;2023-04-24T05:06:46;11.00;99.90
31639;DHT22;18248;51.522;7.020;2023-04-24T05:09:45;11.00;99.90
31639;DHT22;18248;51.522;7.020;2023-04-24T05:12:44;11.00;99.90
31639;DHT22;18248;51.522;7.020;2023-04-24T05:15:42;10.90;99.90
31639;DHT22;18248;51.522;7.020;2023-04-24T05:18:41;10.90;99.90
31639;DHT22;18248;51.522;7.020;2023-04-24T05:21:40;10.90;99.90
31639;DHT22;18248;51.522;7.020;2023-04-24T05:24:39;11.00;99.90
31639;DHT22;18248;51.522;7.020;2023-04-24T05:27:38;10.90;99.90
31639;DHT22;18248;51.522;7.020;2023-04-24T05:30:36;11.00;99.90
31639;DHT22;18248;51.522;7.020;2023-04-24T05:33:35;10.90;99.90
31639;DHT22;18248;51.522;7.020;2023-04-24T05:36:33;10.90;99.90
31639;DHT22;18248;51.522;7.020;2023-04-24T05:39:32;10.90;99.90
31639;DHT22;18248;51.522;7.020;2023-04-24T05:42:31;10.80;99.90
31639;DHT22;18248;51.522;7.020;2023-04-24T05:45:30;10.70;99.90
31639;DHT22;18248;51.522;7.020;2023-04-24T05:48:28;10.60;99.90
31639;DHT22;18248;51.522;7.020;2023-04-24T05:51:28;10.60;99.90
31639;DHT22;18248;51.522;7.020;2023-04-24T05:54:26;10.50;99.90
31639;DHT22;18248;51.522;7.020;2023-04-24T05:57:25;10.50;99.90
31639;DHT22;18248;51.522;7.020;2023-04-24T06:00:25;10.40;99.90
31639;DHT22;18248;51.522;7.020;2023-04-24T06:03:24;10.40;99.90
31639;DHT22;18248;51.522;7.020;2023-04-24T06:06:24;10.40;99.90
31639;DHT22;18248;51.522;7.020;2023-04-24T06:09:22;10.40;99.90
31639;DHT22;18248;51.522;7.020;2023-04-24T06:12:21;10.40;99.90
31639;DHT22;18248;51.522;7.020;2023-04-24T06:15:21;10.40;99.90
31639;DHT22;18248;51.522;7.020;2023-04-24T06:18:20;10.50;99.90
31639;DHT22;18248;51.522;7.020;2023-04-24T06:21:20;10.50;99.90
31639;DHT22;18248;51.522;7.020;2023-04-24T06:24:19;10.60;99.90
31639;DHT22;18248;51.522;7.020;2023-04-24T06:27:17;10.60;99.90
31639;DHT22;18248;51.522;7.020;2023-04-24T06:30:16;10.50;99.90
31639;DHT22;18248;51.522;7.020;2023-04-24T06:33:14;10.50;99.90
31639;DHT22;18248;51.522;7.020;2023-04-24T06:36:13;10.50;99.90
31639;DHT22;18248;51.522;7.020;2023-04-24T06:39:11;10.40;99.90
31639;DHT22;18248;51.522;7.020;2023-04-24T06:42:10;10.50;99.90
31639;DHT22;18248;51.522;7.020;2023-04-24T06:45:09;10.40;99.90
31639;DHT22;18248;51.522;7.020;2023-04-24T06:48:08;10.40;99.90
31639;DHT22;18248;51.522;7.020;2023-04-24T06:51:08;10.40;99.90
31639;DHT22;18248;51.522;7.020;2023-04-24T06:54:06;10.40;99.90
31639;DHT22;18248;51.522;7.020;2023-04-24T06:57:05;10.40;99.90
31639;DHT22;18248;51.522;7.020;2023-04-24T07:00:04;10.40;99.90
31639;DHT22;18248;51.522;7.020;2023-04-24T07:03:04;10.50;99.90
31639;DHT22;18248;51.522;7.020;2023-04-24T07:06:05;10.50;99.90
31639;DHT22;18248;51.522;7.020;2023-04-24T07:09:04;10.50;99.90
31639;DHT22;18248;51.522;7.020;2023-04-24T07:12:04;10.50;99.90
31639;DHT22;18248;51.522;7.020;2023-04-24T07:15:04;10.50;99.90
31639;DHT22;18248;51.522;7.020;2023-04-24T07:18:03;10.40;99.90
31639;DHT22;18248;51.522;7.020;2023-04-24T07:21:02;10.40;99.90
31639;DHT22;18248;51.522;7.020;2023-04-24T07:24:00;10.40;99.90
31639;DHT22;18248;51.522;7.020;2023-04-24T07:26:59;10.40;99.90
31639;DHT22;18248;51.522;7.020;2023-04-24T07:29:59;10.40;99.90
31639;DHT22;18248;51.522;7.020;2023-04-24T07:32:58;10.40;99.90
31639;DHT22;18248;51.522;7.020;2023-04-24T07:35:56;10.40;99.90
31639;DHT22;18248;51.522;7.020;2023-04-24T07:38:55;10.40;99.90
31639;DHT22;18248;51.522;7.020;2023-04-24T07:41:55;10.40;99.90
31639;DHT22;18248;51.522;7.020;2023-04-24T07:44:54;10.40;99.90
31639;DHT22;18248;51.522;7.020;2023-04-24T07:47:56;10.50;99.90
31639;DHT22;18248;51.522;7.020;2023-04-24T07:50:54;10.60;99.90
31639;DHT22;18248;51.522;7.020;2023-04-24T07:53:53;10.70;99.90
31639;DHT22;18248;51.522;7.020;2023-04-24T07:56:53;10.80;99.90
31639;DHT22;18248;51.522;7.020;2023-04-24T07:59:53;10.70;99.90
31639;DHT22;18248;51.522;7.020;2023-04-24T08:02:52;10.70;99.90
31639;DHT22;18248;51.522;7.020;2023-04-24T08:05:50;10.60;99.90
31639;DHT22;18248;51.522;7.020;2023-04-24T08:08:49;10.60;99.90
31639;DHT22;18248;51.522;7.020;2023-04-24T08:11:47;10.50;99.90
31639;DHT22;18248;51.522;7.020;2023-04-24T08:14:46;10.40;99.90
31639;DHT22;18248;51.522;7.020;2023-04-24T08:17:45;10.30;99.90
31639;DHT22;18248;51.522;7.020;2023-04-24T08:20:43;10.20;99.90
31639;DHT22;18248;51.522;7.020;2023-04-24T08:23:43;10.10;99.90
31639;DHT22;18248;51.522;7.020;2023-04-24T08:26:42;10.10;99.90
31639;DHT22;18248;51.522;7.020;2023-04-24T08:29:41;10.10;99.90
31639;DHT22;18248;51.522;7.020;2023-04-24T08:32:39;10.10;99.90
31639;DHT22;18248;51.522;7.020;2023-04-24T08:35:38;10.00;99.90
31639;DHT22;18248;51.522;7.020;2023-04-24T08:38:37;10.00;99.90
31639;DHT22;18248;51.522;7.020;2023-04-24T08:41:36;10.00;99.90
31639;DHT22;18248;51.522;7.020;2023-04-24T08:44:36;10.00;99.90
31639;DHT22;18248;51.522;7.020;2023-04-24T08:47:35;10.00;99.90
31639;DHT22;18248;51.522;7.020;2023-04-24T08:50:35;10.10;99.90
31639;DHT22;18248;51.522;7.020;2023-04-24T08:53:35;10.10;99.90
31639;DHT22;18248;51.522;7.020;2023-04-24T08:56:36;10.10;99.90
31639;DHT22;18248;51.522;7.020;2023-04-24T08:59:38;10.10;99.90
31639;DHT22;18248;51.522;7.020;2023-04-24T09:02:44;10.10;99.90
31639;DHT22;18248;51.522;7.020;2023-04-24T09:05:47;10.20;99.90
31639;DHT22;18248;51.522;7.020;2023-04-24T09:08:50;10.30;99.90
31639;DHT22;18248;51.522;7.020;2023-04-24T09:11:52;10.40;99.90
31639;DHT22;18248;51.522;7.020;2023-04-24T09:14:54;10.40;99.90
31639;DHT22;18248;51.522;7.020;2023-04-24T09:17:53;10.50;99.90
31639;DHT22;18248;51.522;7.020;2023-04-24T09:21:02;10.60;99.90
31639;DHT22;18248;51.522;7.020;2023-04-24T09:24:04;10.70;99.90
31639;DHT22;18248;51.522;7.020;2023-04-24T09:27:02;10.70;99.90
31639;DHT22;18248;51.522;7.020;2023-04-24T09:30:02;10.70;99.90
31639;DHT22;18248;51.522;7.020;2023-04-24T09:33:10;10.80;99.90
31639;DHT22;18248;51.522;7.020;2023-04-24T09:36:09;10.70;99.90
31639;DHT22;18248;51.522;7.020;2023-04-24T09:39:10;10.70;99.90
31639;DHT22;18248;51.522;7.020;2023-04-24T09:42:09;10.60;99.90
31639;DHT22;18248;51.522;7.020;2023-04-24T09:45:11;10.50;99.90
31639;DHT22;18248;51.522;7.020;2023-04-24T09:48:10;10.40;99.90
31639;DHT22;18248;51.522;7.020;2023-04-24T09:51:08;10.40;99.90
31639;DHT22;18248;51.522;7.020;2023-04-24T09:54:15;10.40;99.90
31639;DHT22;18248;51.522;7.020;2023-04-24T09:57:14;10.40;99.90
31639;DHT22;18248;51.522;7.020;2023-04-24T10:00:13;10.40;99.90
31639;DHT22;18248;51.522;7.020;2023-04-24T10:03:17;10.30;99.90
31639;DHT22;18248;51.522;7.020;2023-04-24T10:06:16;10.30;99.90
31639;DHT22;18248;51.522;7.020;2023-04-24T10:09:16;10.20;99.90
31639;DHT22;18248;51.522;7.020;2023-04-24T10:12:15;10.30;99.90
31639;DHT22;18248;51.522;7.020;2023-04-24T10:15:15;10.30;99.90
31639;DHT22;18248;51.522;7.020;2023-04-24T10:18:15;10.30;99.90
31639;DHT22;18248;51.522;7.020;2023-04-24T10:21:16;10.40;99.90
31639;DHT22;18248;51.522;7.020;2023-04-24T10:24:16;10.40;99.90
31639;DHT22;18248;51.522;7.020;2023-04-24T10:27:15;10.40;99.90
31639;DHT22;18248;51.522;7.020;2023-04-24T10:30:15;10.50;99.90
31639;DHT22;18248;51.522;7.020;2023-04-24T10:33:14;10.50;99.90
31639;DHT22;18248;51.522;7.020;2023-04-24T10:36:13;10.60;99.90
31639;DHT22;18248;51.522;7.020;2023-04-24T10:39:13;10.60;99.90
31639;DHT22;18248;51.522;7.020;2023-04-24T10:42:16;10.50;99.90
31639;DHT22;18248;51.522;7.020;2023-04-24T10:45:22;10.50;99.90
31639;DHT22;18248;51.522;7.020;2023-04-24T10:48:26;10.50;99.90
31639;DHT22;18248;51.522;7.020;2023-04-24T10:51:42;10.50;99.90
31639;DHT22;18248;51.522;7.020;2023-04-24T10:54:45;10.60;99.90
31639;DHT22;18248;51.522;7.020;2023-04-24T10:58:09;10.70;99.90
31639;DHT22;18248;51.522;7.020;2023-04-24T11:01:08;10.70;99.90
31639;DHT22;18248;51.522;7.020;2023-04-24T11:04:07;10.70;99.90
31639;DHT22;18248;51.522;7.020;2023-04-24T11:07:06;10.80;99.90
31639;DHT22;18248;51.522;7.020;2023-04-24T11:10:04;10.80;99.90
31639;DHT22;18248;51.522;7.020;2023-04-24T11:13:03;10.80;99.90
31639;DHT22;18248;51.522;7.020;2023-04-24T11:19:22;10.90;99.90
31639;DHT22;18248;51.522;7.020;2023-04-24T11:22:23;10.90;99.90
31639;DHT22;18248;51.522;7.020;2023-04-24T11:25:22;11.00;99.90
31639;DHT22;18248;51.522;7.020;2023-04-24T11:28:24;11.30;99.90
31639;DHT22;18248;51.522;7.020;2023-04-24T11:31:38;11.60;99.90
31639;DHT22;18248;51.522;7.020;2023-04-24T11:34:38;11.60;99.90
31639;DHT22;18248;51.522;7.020;2023-04-24T11:37:42;11.60;99.90
31639;DHT22;18248;51.522;7.020;2023-04-24T11:40:42;11.40;99.90
31639;DHT22;18248;51.522;7.020;2023-04-24T11:43:43;11.50;99.90
31639;DHT22;18248;51.522;7.020;2023-04-24T11:46:42;11.50;99.90
31639;DHT22;18248;51.522;7.020;2023-04-24T11:49:41;11.30;99.90
31639;DHT22;18248;51.522;7.020;2023-04-24T11:52:41;11.20;99.90
31639;DHT22;18248;51.522;7.020;2023-04-24T11:55:39;11.10;99.90
31639;DHT22;18248;51.522;7.020;2023-04-24T11:58:38;11.10;99.90
31639;DHT22;18248;51.522;7.020;2023-04-24T12:01:44;11.20;99.90
31639;DHT22;18248;51.522;7.020;2023-04-24T12:04:43;11.30;99.90
31639;DHT22;18248;51.522;7.020;2023-04-24T12:07:42;11.40;99.90
31639;DHT22;18248;51.522;7.020;2023-04-24T12:10:43;11.60;99.90
31639;DHT22;18248;51.522;7.020;2023-04-24T12:13:43;11.70;99.90
31639;DHT22;18248;51.522;7.020;2023-04-24T12:16:47;11.70;99.90
31639;DHT22;18248;51.522;7.020;2023-04-24T12:19:47;11.70;99.90
31639;DHT22;18248;51.522;7.020;2023-04-24T12:22:54;11.70;99.90
31639;DHT22;18248;51.522;7.020;2023-04-24T12:25:53;11.60;99.90
31639;DHT22;18248;51.522;7.020;2023-04-24T12:28:51;11.60;99.90
31639;DHT22;18248;51.522;7.020;2023-04-24T12:31:51;11.50;99.90
31639;DHT22;18248;51.522;7.020;2023-04-24T12:34:50;11.50;99.90
31639;DHT22;18248;51.522;7.020;2023-04-24T12:37:50;11.40;99.90
31639;DHT22;18248;51.522;7.020;2023-04-24T12:41:11;11.40;99.90
31639;DHT22;18248;51.522;7.020;2023-04-24T12:44:11;11.40;99.90
31639;DHT22;18248;51.522;7.020;2023-04-24T12:47:11;11.40;99.90
31639;DHT22;18248;51.522;7.020;2023-04-24T12:50:14;11.50;99.90
31639;DHT22;18248;51.522;7.020;2023-04-24T12:53:15;11.60;99.90
31639;DHT22;18248;51.522;7.020;2023-04-24T12:56:14;11.70;99.90
31639;DHT22;18248;51.522;7.020;2023-04-24T12:59:12;11.70;99.90
31639;DHT22;18248;51.522;7.020;2023-04-24T13:02:11;11.80;99.90
31639;DHT22;18248;51.522;7.020;2023-04-24T13:05:11;11.80;99.90
31639;DHT22;18248;51.522;7.020;2023-04-24T13:08:12;12.00;99.90
31639;DHT22;18248;51.522;7.020;2023-04-24T13:11:11;12.00;99.90
31639;DHT22;18248;51.522;7.020;2023-04-24T13:14:09;12.00;99.90
31639;DHT22;18248;51.522;7.020;2023-04-24T13:17:08;12.00;99.90
31639;DHT22;18248;51.522;7.020;2023-04-24T13:20:07;12.00;99.90
31639;DHT22;18248;51.522;7.020;2023-04-24T13:23:06;12.00;99.90
31639;DHT22;18248;51.522;7.020;2023-04-24T13:26:04;12.00;99.90
31639;DHT22;18248;51.522;7.020;2023-04-24T13:29:03;11.90;99.90
31639;DHT22;18248;51.522;7.020;2023-04-24T13:32:02;11.90;99.90
31639;DHT22;18248;51.522;7.020;2023-04-24T13:35:01;11.80;99.90
31639;DHT22;18248;51.522;7.020;2023-04-24T13:38:00;11.90;99.90
31639;DHT22;18248;51.522;7.020;2023-04-24T13:41:02;11.80;99.90
31639;DHT22;18248;51.522;7.020;2023-04-24T13:44:01;11.70;99.90
31639;DHT22;18248;51.522;7.020;2023-04-24T13:46:59;11.70;99.90
31639;DHT22;18248;51.522;7.020;2023-04-24T13:49:58;11.70;99.90
31639;DHT22;18248;51.522;7.020;2023-04-24T13:52:57;11.70;99.90
31639;DHT22;18248;51.522;7.020;2023-04-24T13:55:55;11.80;99.90
31639;DHT22;18248;51.522;7.020;2023-04-24T13:58:56;11.90;99.90
31639;DHT22;18248;51.522;7.020;2023-04-24T14:01:55;12.10;99.90
31639;DHT22;18248;51.522;7.020;2023-04-24T14:04:55;12.30;99.90
31639;DHT22;18248;51.522;7.020;2023-04-24T14:07:53;12.40;99.90
31639;DHT22;18248;51.522;7.020;2023-04-24T14:10:52;12.50;99.90
31639;DHT22;18248;51.522;7.020;2023-04-24T14:13:51;12.80;99.90
31639;DHT22;18248;51.522;7.020;2023-04-24T14:16:49;12.90;99.90
31639;DHT22;18248;51.522;7.020;2023-04-24T14:19:48;12.90;99.90
31639;DHT22;18248;51.522;7.020;2023-04-24T14:22:46;12.80;99.90
31639;DHT22;18248;51.522;7.020;2023-04-24T14:25:45;12.80;99.90
31639;DHT22;18248;51.522;7.020;2023-04-24T14:28:44;12.60;99.90
31639;DHT22;18248;51.522;7.020;2023-04-24T14:31:42;12.50;99.90
31639;DHT22;18248;51.522;7.020;2023-04-24T14:34:41;12.30;99.90
31639;DHT22;18248;51.522;7.020;2023-04-24T14:37:40;12.30;99.90
31639;DHT22;18248;51.522;7.020;2023-04-24T14:40:42;12.20;99.90
31639;DHT22;18248;51.522;7.020;2023-04-24T14:43:40;12.00;99.90
31639;DHT22;18248;51.522;7.020;2023-04-24T14:46:39;12.00;99.90
31639;DHT22;18248;51.522;7.020;2023-04-24T14:49:38;11.80;99.90
31639;DHT22;18248;51.522;7.020;2023-04-24T14:52:36;11.70;99.90
31639;DHT22;18248;51.522;7.020;2023-04-24T14:55:35;11.50;99.90
31639;DHT22;18248;51.522;7.020;2023-04-24T14:58:34;11.60;99.90
31639;DHT22;18248;51.522;7.020;2023-04-24T15:01:33;11.60;99.90
31639;DHT22;18248;51.522;7.020;2023-04-24T15:04:31;11.60;99.90
31639;DHT22;18248;51.522;7.020;2023-04-24T15:07:30;11.60;99.90
31639;DHT22;18248;51.522;7.020;2023-04-24T15:10:30;11.60;99.90
31639;DHT22;18248;51.522;7.020;2023-04-24T15:13:29;11.80;99.90
31639;DHT22;18248;51.522;7.020;2023-04-24T15:16:27;11.80;99.90
31639;DHT22;18248;51.522;7.020;2023-04-24T15:19:26;11.90;99.90
31639;DHT22;18248;51.522;7.020;2023-04-24T15:22:24;12.00;99.90
31639;DHT22;18248;51.522;7.020;2023-04-24T15:25:23;12.10;99.90
31639;DHT22;18248;51.522;7.020;2023-04-24T15:28:21;12.10;99.90
31639;DHT22;18248;51.522;7.020;2023-04-24T15:31:20;12.20;99.90
31639;DHT22;18248;51.522;7.020;2023-04-24T15:34:21;12.20;99.90
31639;DHT22;18248;51.522;7.020;2023-04-24T15:37:19;12.30;99.90
31639;DHT22;18248;51.522;7.020;2023-04-24T15:40:18;12.30;99.90
31639;DHT22;18248;51.522;7.020;2023-04-24T15:43:16;12.30;99.90
31639;DHT22;18248;51.522;7.020;2023-04-24T15:46:15;12.30;99.90
31639;DHT22;18248;51.522;7.020;2023-04-24T15:49:14;12.30;99.90
31639;DHT22;18248;51.522;7.020;2023-04-24T15:52:13;12.40;99.90
31639;DHT22;18248;51.522;7.020;2023-04-24T15:55:12;12.50;99.90
31639;DHT22;18248;51.522;7.020;2023-04-24T15:58:10;12.50;99.90
31639;DHT22;18248;51.522;7.020;2023-04-24T16:01:09;12.60;99.90
31639;DHT22;18248;51.522;7.020;2023-04-24T16:04:07;12.70;99.90
31639;DHT22;18248;51.522;7.020;2023-04-24T16:07:06;12.90;99.90
31639;DHT22;18248;51.522;7.020;2023-04-24T16:10:05;12.90;99.90
31639;DHT22;18248;51.522;7.020;2023-04-24T16:13:04;13.00;99.90
31639;DHT22;18248;51.522;7.020;2023-04-24T16:16:03;12.90;99.90
31639;DHT22;18248;51.522;7.020;2023-04-24T16:19:02;12.90;99.90
31639;DHT22;18248;51.522;7.020;2023-04-24T16:22:01;13.00;99.90
31639;DHT22;18248;51.522;7.020;2023-04-24T16:25:01;12.90;99.90
31639;DHT22;18248;51.522;7.020;2023-04-24T16:28:00;12.90;99.90
31639;DHT22;18248;51.522;7.020;2023-04-24T16:30:58;12.80;99.90
31639;DHT22;18248;51.522;7.020;2023-04-24T16:33:57;12.60;99.90
31639;DHT22;18248;51.522;7.020;2023-04-24T16:36:55;12.60;99.90
31639;DHT22;18248;51.522;7.020;2023-04-24T16:39:54;12.40;99.90
31639;DHT22;18248;51.522;7.020;2023-04-24T16:42:53;12.40;99.90
31639;DHT22;18248;51.522;7.020;2023-04-24T16:45:53;12.30;99.90
31639;DHT22;18248;51.522;7.020;2023-04-24T16:48:51;12.30;99.90
31639;DHT22;18248;51.522;7.020;2023-04-24T16:51:51;12.10;99.90
31639;DHT22;18248;51.522;7.020;2023-04-24T16:54:51;12.10;99.90
31639;DHT22;18248;51.522;7.020;2023-04-24T16:57:50;11.90;99.90
31639;DHT22;18248;51.522;7.020;2023-04-24T17:00:49;11.80;99.90
31639;DHT22;18248;51.522;7.020;2023-04-24T17:03:47;11.70;99.90
31639;DHT22;18248;51.522;7.020;2023-04-24T17:06:47;11.60;99.90
31639;DHT22;18248;51.522;7.020;2023-04-24T17:09:46;11.50;99.90
31639;DHT22;18248;51.522;7.020;2023-04-24T17:12:44;11.50;99.90
31639;DHT22;18248;51.522;7.020;2023-04-24T17:15:43;11.40;99.90
31639;DHT22;18248;51.522;7.020;2023-04-24T17:18:41;11.40;99.90
31639;DHT22;18248;51.522;7.020;2023-04-24T17:21:40;11.40;99.90
31639;DHT22;18248;51.522;7.020;2023-04-24T17:24:38;11.40;99.90
31639;DHT22;18248;51.522;7.020;2023-04-24T17:27:37;11.40;99.90
31639;DHT22;18248;51.522;7.020;2023-04-24T17:30:36;11.30;99.90
31639;DHT22;18248;51.522;7.020;2023-04-24T17:33:34;11.30;99.90
31639;DHT22;18248;51.522;7.020;2023-04-24T17:36:33;11.20;99.90
31639;DHT22;18248;51.522;7.020;2023-04-24T17:39:32;11.20;99.90
31639;DHT22;18248;51.522;7.020;2023-04-24T17:42:31;11.30;99.90
31639;DHT22;18248;51.522;7.020;2023-04-24T17:45:31;11.30;99.90
31639;DHT22;18248;51.522;7.020;2023-04-24T17:48:29;11.30;99.90
31639;DHT22;18248;51.522;7.020;2023-04-24T17:51:28;11.30;99.90
31639;DHT22;18248;51.522;7.020;2023-04-24T17:54:26;11.30;99.90
31639;DHT22;18248;51.522;7.020;2023-04-24T17:57:25;11.30;99.90
31639;DHT22;18248;51.522;7.020;2023-04-24T18:00:24;11.30;99.90
31639;DHT22;18248;51.522;7.020;2023-04-24T18:03:23;11.20;99.90
31639;DHT22;18248;51.522;7.020;2023-04-24T18:06:21;11.10;99.90
31639;DHT22;18248;51.522;7.020;2023-04-24T18:09:20;11.00;99.90
31639;DHT22;18248;51.522;7.020;2023-04-24T18:12:18;11.00;99.90
31639;DHT22;18248;51.522;7.020;2023-04-24T18:15:18;11.00;99.90
31639;DHT22;18248;51.522;7.020;2023-04-24T18:18:16;10.90;99.90
31639;DHT22;18248;51.522;7.020;2023-04-24T18:21:16;10.90;99.90
31639;DHT22;18248;51.522;7.020;2023-04-24T18:24:15;10.90;99.90
31639;DHT22;18248;51.522;7.020;2023-04-24T18:27:13;10.80;99.90
31639;DHT22;18248;51.522;7.020;2023-04-24T18:30:12;10.80;99.90
31639;DHT22;18248;51.522;7.020;2023-04-24T18:33:11;10.70;99.90
31639;DHT22;18248;51.522;7.020;2023-04-24T18:36:09;10.70;99.90
31639;DHT22;18248;51.522;7.020;2023-04-24T18:39:08;10.60;99.90
31639;DHT22;18248;51.522;7.020;2023-04-24T18:42:06;10.60;99.90
31639;DHT22;18248;51.522;7.020;2023-04-24T18:45:06;10.60;99.90
31639;DHT22;18248;51.522;7.020;2023-04-24T18:48:04;10.60;99.90
31639;DHT22;18248;51.522;7.020;2023-04-24T18:51:04;10.60;99.90
31639;DHT22;18248;51.522;7.020;2023-04-24T18:54:03;10.60;99.90
31639;DHT22;18248;51.522;7.020;2023-04-24T18:57:02;10.50;99.90